Time;durP1;ratioP1;P1;durP2;ratioP2;P2;SDS_P1;SDS_P2;PMS_P1;PMS_P2;Temp;Humidity;BMP_temperature;BMP_pressure;BME280_temperature;BME280_humidity;BME280_pressure;Samples;Min_cycle;Max_cycle;Signal;HPM_P1;HPM_P2
2021/01/29 00:00:43;;;;;;;49.40;19.73;;;;;;;;;;8195598;28;20046;-72
2021/01/29 00:04:46;;;;;;;46.53;17.85;;;;;;;;;;8193792;28;20472;-73
2021/01/29 00:08:49;;;;;;;41.60;15.95;;;;;;;;;;8193800;28;20080;-74
2021/01/29 00:12:52;;;;;;;42.90;18.33;;;;;;;;;;8193487;28;20461;-73
2021/01/29 00:16:56;;;;;;;33.20;16.13;;;;;;;;;;8194851;28;20487;-75
2021/01/29 00:20:59;;;;;;;47.53;18.92;;;;;;;;;;8176743;28;20495;-74
2021/01/29 00:25:08;;;;;;;53.15;20.17;;;;;;;;;;8193988;28;20473;-73
2021/01/29 00:29:12;;;;;;;36.20;17.15;;;;;;;;;;8177720;28;20368;-73
2021/01/29 00:33:15;;;;;;;39.28;16.40;;;;;;;;;;8193970;28;20073;-72
2021/01/29 00:37:19;;;;;;;24.88;11.80;;;;;;;;;;8194178;28;20064;-73
2021/01/29 00:41:23;;;;;;;28.02;11.65;;;;;;;;;;8193579;28;20472;-73
2021/01/29 00:45:32;;;;;;;32.30;11.68;;;;;;;;;;8191912;28;20384;-73
2021/01/29 00:49:35;;;;;;;28.03;11.80;;;;;;;;;;8192065;28;20376;-73
2021/01/29 00:53:39;;;;;;;30.38;12.68;;;;;;;;;;8192382;28;20959;-74
2021/01/29 00:57:50;;;;;;;26.75;11.63;;;;;;;;;;8177128;28;20491;-74
2021/01/29 01:02:26;;;;;;;28.35;11.55;;;;;;;;;;8180854;28;20472;-74
2021/01/29 01:06:29;;;;;;;32.03;12.82;;;;;;;;;;8192913;28;20480;-73
2021/01/29 01:10:52;;;;;;;39.63;13.25;;;;;;;;;;8191360;28;20472;-73
2021/01/29 01:15:26;;;;;;;22.75;9.02;;;;;;;;;;8191583;28;20392;-73
2021/01/29 01:19:37;;;;;;;18.45;9.05;;;;;;;;;;8191430;28;20362;-75
2021/01/29 01:23:42;;;;;;;18.45;8.75;;;;;;;;;;8190770;28;20112;-74
2021/01/29 01:27:45;;;;;;;14.43;8.18;;;;;;;;;;8191812;28;20415;-74
2021/01/29 01:32:18;;;;;;;21.38;9.32;;;;;;;;;;8178969;28;20587;-77
2021/01/29 01:36:40;;;;;;;22.13;10.27;;;;;;;;;;8192910;28;20372;-75
2021/01/29 01:41:03;;;;;;;25.10;12.15;;;;;;;;;;8191537;28;20046;-75
2021/01/29 01:45:29;;;;;;;21.10;10.60;;;;;;;;;;8176507;28;20042;-75
2021/01/29 01:49:37;;;;;;;24.52;11.75;;;;;;;;;;8190495;28;20382;-74
2021/01/29 01:53:51;;;;;;;23.60;11.70;;;;;;;;;;8191033;28;20477;-76
2021/01/29 01:58:05;;;;;;;23.90;12.25;;;;;;;;;;8176226;28;20465;-76
2021/01/29 02:02:31;;;;;;;29.13;12.75;;;;;;;;;;8160796;28;20046;-76
2021/01/29 02:07:05;;;;;;;20.35;11.32;;;;;;;;;;8190521;28;20405;-75
2021/01/29 02:11:27;;;;;;;27.27;12.82;;;;;;;;;;8198105;28;20370;-75
2021/01/29 02:15:55;;;;;;;23.48;11.38;;;;;;;;;;8199125;28;20385;-76
2021/01/29 02:20:30;;;;;;;24.48;11.35;;;;;;;;;;8196737;28;20366;-75
2021/01/29 02:24:57;;;;;;;29.15;11.68;;;;;;;;;;8212030;28;20428;-76
2021/01/29 02:29:15;;;;;;;28.40;10.32;;;;;;;;;;8196862;28;20058;-76
2021/01/29 02:34:04;;;;;;;23.35;11.02;;;;;;;;;;8196968;28;20408;-76
2021/01/29 02:38:45;;;;;;;36.75;12.05;;;;;;;;;;8196228;28;20457;-76
2021/01/29 02:43:43;;;;;;;23.58;8.77;;;;;;;;;;8195716;28;20477;-75
2021/01/29 02:48:20;;;;;;;27.88;11.32;;;;;;;;;;8195420;28;20425;-76
2021/01/29 02:53:29;;;;;;;13.55;6.72;;;;;;;;;;8195517;28;20049;-75
2021/01/29 02:57:58;;;;;;;20.88;8.88;;;;;;;;;;8196572;28;20499;-76
2021/01/29 03:03:15;;;;;;;46.28;15.23;;;;;;;;;;8185059;28;20511;-76
2021/01/29 03:08:30;;;;;;;20.20;8.93;;;;;;;;;;8180954;28;20054;-76
2021/01/29 03:13:00;;;;;;;17.02;7.15;;;;;;;;;;8167466;28;20476;-77
2021/01/29 03:17:37;;;;;;;25.17;9.70;;;;;;;;;;8195567;28;20380;-76
2021/01/29 03:22:29;;;;;;;13.32;6.03;;;;;;;;;;8194925;28;20372;-76
2021/01/29 03:27:19;;;;;;;10.52;5.25;;;;;;;;;;8195115;28;20377;-76
2021/01/29 03:31:56;;;;;;;26.95;8.73;;;;;;;;;;8159633;28;20410;-76
2021/01/29 03:36:21;;;;;;;10.98;5.55;;;;;;;;;;8194546;28;20472;-76
2021/01/29 03:40:45;;;;;;;27.30;8.45;;;;;;;;;;8194514;28;20484;-76
2021/01/29 03:45:37;;;;;;;33.45;9.55;;;;;;;;;;8194158;28;20480;-76
2021/01/29 03:50:30;;;;;;;31.20;9.43;;;;;;;;;;8193397;28;20038;-77
2021/01/29 03:55:10;;;;;;;14.68;6.03;;;;;;;;;;8158957;28;20072;-77
2021/01/29 04:00:01;;;;;;;15.07;6.03;;;;;;;;;;8195741;28;20453;-76
2021/01/29 04:05:02;;;;;;;11.77;5.22;;;;;;;;;;8194448;28;20424;-76
2021/01/29 04:09:46;;;;;;;11.20;5.00;;;;;;;;;;8182909;28;20376;-77
2021/01/29 04:14:12;;;;;;;10.38;4.95;;;;;;;;;;8193731;28;20076;-77
2021/01/29 04:18:33;;;;;;;10.90;5.15;;;;;;;;;;8178269;28;20045;-77
2021/01/29 04:22:40;;;;;;;17.40;6.10;;;;;;;;;;8194656;28;20469;-77
2021/01/29 04:26:55;;;;;;;9.80;4.00;;;;;;;;;;8193073;28;20057;-77
2021/01/29 04:31:02;;;;;;;10.20;4.47;;;;;;;;;;8193494;28;20053;-76
2021/01/29 04:35:09;;;;;;;12.15;4.30;;;;;;;;;;8193155;28;20381;-77
2021/01/29 04:39:28;;;;;;;17.67;5.38;;;;;;;;;;8177089;28;20408;-76
2021/01/29 04:44:11;;;;;;;8.50;4.88;;;;;;;;;;8193012;28;20038;-77
2021/01/29 04:48:45;;;;;;;33.33;11.57;;;;;;;;;;8194101;28;20453;-77
2021/01/29 04:53:27;;;;;;;11.07;5.10;;;;;;;;;;8192444;28;20392;-76
2021/01/29 04:57:40;;;;;;;12.23;4.70;;;;;;;;;;8193323;28;20050;-77
2021/01/29 05:02:28;;;;;;;9.02;4.53;;;;;;;;;;8207973;28;20042;-76
2021/01/29 05:07:09;;;;;;;9.25;3.83;;;;;;;;;;8183136;28;20068;-76
2021/01/29 05:12:03;;;;;;;9.98;3.80;;;;;;;;;;8193044;28;20420;-76
2021/01/29 05:16:44;;;;;;;13.93;4.55;;;;;;;;;;8191818;28;20046;-76
2021/01/29 05:21:25;;;;;;;10.90;5.35;;;;;;;;;;8191533;28;20109;-76
2021/01/29 05:26:14;;;;;;;32.53;11.70;;;;;;;;;;8192675;28;20342;-76
2021/01/29 05:31:02;;;;;;;60.83;18.37;;;;;;;;;;8191184;28;20477;-75
2021/01/29 05:35:34;;;;;;;;;;;;;;;;;;8149272;28;20372;-75
2021/01/29 05:40:04;;;;;;;75.28;22.55;;;;;;;;;;8192135;28;19950;-75
2021/01/29 05:44:21;;;;;;;86.95;23.75;;;;;;;;;;8192242;28;20388;-75
2021/01/29 05:48:55;;;;;;;68.18;19.50;;;;;;;;;;8192324;28;20384;-75
2021/01/29 05:53:26;;;;;;;77.55;19.52;;;;;;;;;;8191904;28;20369;-75
2021/01/29 05:57:57;;;;;;;65.47;16.85;;;;;;;;;;8192395;28;20366;-75
2021/01/29 06:02:23;;;;;;;47.08;14.73;;;;;;;;;;8191432;28;20064;-75
2021/01/29 06:06:39;;;;;;;70.40;15.98;;;;;;;;;;8190454;28;20465;-74
2021/01/29 06:11:05;;;;;;;76.40;19.42;;;;;;;;;;8191674;28;20384;-74
2021/01/29 06:15:58;;;;;;;53.60;14.82;;;;;;;;;;8189250;28;20496;-74
2021/01/29 06:20:33;;;;;;;54.88;14.35;;;;;;;;;;8191539;28;20487;-74
2021/01/29 06:24:58;;;;;;;30.33;10.15;;;;;;;;;;8191619;28;20388;-74
2021/01/29 06:29:46;;;;;;;35.60;12.55;;;;;;;;;;8191369;28;20453;-74
2021/01/29 06:34:33;;;;;;;31.15;9.30;;;;;;;;;;8190223;28;20476;-74
2021/01/29 06:39:20;;;;;;;29.50;8.95;;;;;;;;;;8191566;28;20064;-74
2021/01/29 06:44:00;;;;;;;15.88;6.88;;;;;;;;;;8193141;28;20392;-74
2021/01/29 06:48:39;;;;;;;36.15;10.45;;;;;;;;;;8191152;28;20069;-74
2021/01/29 06:53:35;;;;;;;22.20;8.45;;;;;;;;;;8191627;28;20080;-74
2021/01/29 06:58:01;;;;;;;31.48;9.10;;;;;;;;;;8180990;28;20415;-74
2021/01/29 07:02:20;;;;;;;27.55;8.43;;;;;;;;;;8195798;28;20388;-74
2021/01/29 07:06:58;;;;;;;30.73;11.15;;;;;;;;;;8197166;28;20365;-74
2021/01/29 07:12:02;;;;;;;31.05;11.90;;;;;;;;;;8192750;28;20361;-74
2021/01/29 07:16:44;;;;;;;50.63;14.65;;;;;;;;;;8176645;28;20361;-74
2021/01/29 07:21:04;;;;;;;34.67;14.23;;;;;;;;;;8177144;28;20076;-74
2021/01/29 07:25:39;;;;;;;42.47;15.10;;;;;;;;;;8175543;28;20489;-74
2021/01/29 07:30:28;;;;;;;62.63;20.02;;;;;;;;;;8191573;28;20546;-74
2021/01/29 07:34:59;;;;;;;84.38;23.38;;;;;;;;;;8178451;28;20532;-76
2021/01/29 07:39:43;;;;;;;103.18;24.35;;;;;;;;;;8178309;28;20046;-76
2021/01/29 07:44:27;;;;;;;70.32;21.70;;;;;;;;;;8195357;28;20050;-75
2021/01/29 07:49:07;;;;;;;66.47;18.92;;;;;;;;;;8195445;28;20049;-76
2021/01/29 07:53:32;;;;;;;60.25;17.80;;;;;;;;;;8195322;28;20408;-76
2021/01/29 07:58:17;;;;;;;51.05;16.65;;;;;;;;;;8195764;28;20370;-75
2021/01/29 08:02:55;;;;;;;30.25;12.40;;;;;;;;;;8194397;28;20515;-76
2021/01/29 08:07:14;;;;;;;25.38;10.38;;;;;;;;;;8193664;28;20380;-73
2021/01/29 08:11:20;;;;;;;32.78;13.00;;;;;;;;;;8193792;28;20377;-73
2021/01/29 08:16:11;;;;;;;26.48;11.20;;;;;;;;;;8194581;28;20381;-73
2021/01/29 08:20:57;;;;;;;54.22;21.60;;;;;;;;;;8193223;28;20473;-74
2021/01/29 08:25:42;;;;;;;36.92;15.35;;;;;;;;;;8163408;28;20503;-74
2021/01/29 08:29:46;;;;;;;23.23;9.95;;;;;;;;;;8192396;28;20488;-74
2021/01/29 08:34:50;;;;;;;15.65;7.43;;;;;;;;;;8208499;28;20495;-75
2021/01/29 08:39:15;;;;;;;19.23;8.32;;;;;;;;;;8176129;28;20419;-75
2021/01/29 08:44:16;;;;;;;18.63;10.02;;;;;;;;;;8194051;28;20380;-75
2021/01/29 08:48:49;;;;;;;29.30;13.98;;;;;;;;;;8145121;28;20367;-75
2021/01/29 08:53:10;;;;;;;17.75;8.07;;;;;;;;;;8144397;28;20476;-74
2021/01/29 08:58:06;;;;;;;19.15;9.38;;;;;;;;;;8142046;28;20385;-74
2021/01/29 09:02:37;;;;;;;48.70;33.50;;;;;;;;;;8157098;28;20381;-75
2021/01/29 09:06:44;;;;;;;43.08;12.77;;;;;;;;;;8156702;28;20544;-75
2021/01/29 09:11:11;;;;;;;15.05;7.00;;;;;;;;;;8125835;28;20417;-75
2021/01/29 09:15:25;;;;;;;22.67;8.63;;;;;;;;;;8155976;28;20050;-76
2021/01/29 09:19:29;;;;;;;159.98;34.45;;;;;;;;;;8181345;28;20671;-74
2021/01/29 09:23:43;;;;;;;245.65;49.30;;;;;;;;;;8192576;28;20053;-74
2021/01/29 09:28:10;;;;;;;20.77;9.07;;;;;;;;;;8191012;28;20468;-74
2021/01/29 09:32:21;;;;;;;33.20;9.80;;;;;;;;;;8159205;28;20499;-75
2021/01/29 09:36:48;;;;;;;100.68;22.17;;;;;;;;;;8191124;28;20042;-76
2021/01/29 09:41:25;;;;;;;35.90;13.30;;;;;;;;;;8178717;28;20046;-75
2021/01/29 09:45:29;;;;;;;27.83;9.30;;;;;;;;;;8191111;28;20388;-76
2021/01/29 09:49:36;;;;;;;21.38;8.45;;;;;;;;;;8190868;28;20376;-77
2021/01/29 09:53:55;;;;;;;13.48;6.80;;;;;;;;;;8190958;28;20373;-77
2021/01/29 09:58:29;;;;;;;11.80;5.97;;;;;;;;;;8190657;28;20372;-77
2021/01/29 10:02:59;;;;;;;15.70;7.18;;;;;;;;;;8175126;28;20517;-78
2021/01/29 10:07:08;;;;;;;15.48;6.65;;;;;;;;;;8190584;28;20053;-78
2021/01/29 10:11:57;;;;;;;19.25;8.40;;;;;;;;;;8190645;28;20485;-78
2021/01/29 10:16:24;;;;;;;20.88;9.10;;;;;;;;;;8191604;28;20058;-77
2021/01/29 10:20:33;;;;;;;20.02;8.40;;;;;;;;;;8191113;28;20498;-78
2021/01/29 10:24:39;;;;;;;;;;;;;;;;;;8192791;28;20054;-78
2021/01/29 10:29:20;;;;;;;27.45;13.20;;;;;;;;;;8207840;28;20275;-80
2021/01/29 10:33:36;;;;;;;67.35;31.85;;;;;;;;;;8164331;28;20477;-79
2021/01/29 10:37:44;;;;;;;49.50;21.48;;;;;;;;;;8232905;28;20056;-79
2021/01/29 10:42:01;;;;;;;92.47;34.85;;;;;;;;;;8245306;28;20072;-79
2021/01/29 10:46:15;;;;;;;50.38;22.58;;;;;;;;;;8263772;28;20462;-78
2021/01/29 10:50:33;;;;;;;148.35;61.25;;;;;;;;;;8266349;28;20136;-79
2021/01/29 10:54:40;;;;;;;62.20;26.65;;;;;;;;;;8249515;28;20075;-79
2021/01/29 10:59:04;;;;;;;44.30;17.77;;;;;;;;;;8212605;28;20400;-78
2021/01/29 11:03:17;;;;;;;33.28;14.32;;;;;;;;;;8208621;28;20385;-78
2021/01/29 11:07:33;;;;;;;28.95;13.38;;;;;;;;;;8154304;28;20374;-75
2021/01/29 11:11:47;;;;;;;37.92;14.38;;;;;;;;;;8161707;28;20409;-75
2021/01/29 11:15:54;;;;;;;33.58;15.20;;;;;;;;;;8196036;28;20488;-77
2021/01/29 11:20:03;;;;;;;33.65;14.73;;;;;;;;;;8199021;28;20373;-76
2021/01/29 11:24:43;;;;;;;57.58;21.10;;;;;;;;;;8197774;28;20461;-77
2021/01/29 11:29:16;;;;;;;43.47;19.30;;;;;;;;;;8197417;28;20057;-76
2021/01/29 11:33:29;;;;;;;35.42;16.67;;;;;;;;;;8196063;28;20620;-77
2021/01/29 11:38:08;;;;;;;59.88;25.30;;;;;;;;;;8197247;28;20416;-76
2021/01/29 11:42:37;;;;;;;61.00;24.25;;;;;;;;;;8206686;28;20477;-76
2021/01/29 11:47:00;;;;;;;49.05;21.10;;;;;;;;;;8218004;28;20491;-76
2021/01/29 11:51:30;;;;;;;62.28;27.10;;;;;;;;;;8201820;28;20419;-74
2021/01/29 11:55:53;;;;;;;43.85;19.42;;;;;;;;;;8193685;28;20481;-75
2021/01/29 12:00:07;;;;;;;52.03;20.15;;;;;;;;;;8193973;28;20381;-75
2021/01/29 12:04:51;;;;;;;39.97;16.35;;;;;;;;;;8195407;28;20046;-74
2021/01/29 12:09:07;;;;;;;37.88;15.48;;;;;;;;;;8179956;28;20372;-75
2021/01/29 12:13:27;;;;;;;46.88;18.55;;;;;;;;;;8193808;28;20420;-75
2021/01/29 12:17:32;;;;;;;104.65;43.75;;;;;;;;;;8193824;28;20495;-75
2021/01/29 12:21:52;;;;;;;51.05;24.35;;;;;;;;;;8193082;28;20465;-75
2021/01/29 12:26:26;;;;;;;34.85;13.88;;;;;;;;;;8194656;28;20391;-75
2021/01/29 12:30:45;;;;;;;37.20;15.55;;;;;;;;;;8187269;28;20488;-75
2021/01/29 12:35:16;;;;;;;28.83;12.70;;;;;;;;;;8177747;28;20377;-75
2021/01/29 12:39:37;;;;;;;29.20;12.90;;;;;;;;;;8194738;28;20412;-76
2021/01/29 12:44:15;;;;;;;29.85;13.35;;;;;;;;;;8193322;28;20469;-76
2021/01/29 12:48:43;;;;;;;27.70;11.95;;;;;;;;;;8192371;28;20460;-75
2021/01/29 12:52:55;;;;;;;34.70;14.50;;;;;;;;;;8193242;28;20474;-75
2021/01/29 12:57:30;;;;;;;36.65;15.95;;;;;;;;;;8192396;28;20575;-76
2021/01/29 13:01:33;;;;;;;42.40;18.92;;;;;;;;;;8192000;28;20493;-75
2021/01/29 13:06:09;;;;;;;28.13;13.27;;;;;;;;;;8193036;28;20507;-76
2021/01/29 13:10:27;;;;;;;34.97;13.77;;;;;;;;;;8191580;28;20380;-75
2021/01/29 13:14:47;;;;;;;34.95;15.85;;;;;;;;;;8193316;28;20469;-75
2021/01/29 13:19:05;;;;;;;30.75;12.30;;;;;;;;;;8195216;28;20487;-75
2021/01/29 13:23:40;;;;;;;32.03;13.65;;;;;;;;;;8194474;28;20049;-77
2021/01/29 13:28:14;;;;;;;31.90;16.15;;;;;;;;;;8189230;28;20481;-77
2021/01/29 13:32:34;;;;;;;29.55;13.68;;;;;;;;;;8206975;28;20483;-77
2021/01/29 13:36:38;;;;;;;30.17;12.73;;;;;;;;;;8208348;28;20380;-77
2021/01/29 13:40:44;;;;;;;38.60;18.85;;;;;;;;;;8213366;28;20091;-75
2021/01/29 13:45:05;;;;;;;94.22;34.22;;;;;;;;;;8192928;28;20191;-74
2021/01/29 13:49:30;;;;;;;139.77;42.50;;;;;;;;;;8190608;28;20384;-76
2021/01/29 13:53:41;;;;;;;65.38;22.90;;;;;;;;;;8192294;28;20384;-76
2021/01/29 13:57:56;;;;;;;226.23;65.75;;;;;;;;;;8193231;28;20042;-76
2021/01/29 14:02:55;;;;;;;38.63;15.30;;;;;;;;;;8193194;28;20526;-77
2021/01/29 14:06:58;;;;;;;;;;;;;;;;;;8189709;28;20472;-77
2021/01/29 14:11:43;;;;;;;56.05;19.20;;;;;;;;;;8194042;28;20378;-77
2021/01/29 14:16:11;;;;;;;41.13;18.00;;;;;;;;;;8193784;28;20541;-77
2021/01/29 14:20:33;;;;;;;90.13;30.63;;;;;;;;;;8191235;28;20388;-77
2021/01/29 14:25:10;;;;;;;57.95;23.88;;;;;;;;;;8185891;28;20461;-77
2021/01/29 14:29:39;;;;;;;146.05;54.13;;;;;;;;;;8192270;28;20380;-78
2021/01/29 14:34:40;;;;;;;206.25;67.65;;;;;;;;;;8190938;28;20081;-77
2021/01/29 14:39:22;;;;;;;299.63;90.45;;;;;;;;;;8185805;28;20527;-78
2021/01/29 14:43:44;;;;;;;83.15;32.08;;;;;;;;;;8183495;28;20465;-77
2021/01/29 14:48:45;;;;;;;59.22;27.55;;;;;;;;;;8190985;28;20392;-76
2021/01/29 14:53:46;;;;;;;74.47;30.92;;;;;;;;;;8166346;28;20569;-77
2021/01/29 14:57:55;;;;;;;69.88;29.25;;;;;;;;;;8124901;28;20433;-77
2021/01/29 15:02:52;;;;;;;75.07;32.28;;;;;;;;;;8154292;28;20464;-77
2021/01/29 15:07:11;;;;;;;113.25;47.38;;;;;;;;;;8120337;28;20484;-77
2021/01/29 15:11:23;;;;;;;78.43;34.42;;;;;;;;;;8152206;28;20385;-78
2021/01/29 15:15:26;;;;;;;159.88;68.47;;;;;;;;;;8154699;28;20625;-76
2021/01/29 15:19:40;;;;;;;182.80;67.70;;;;;;;;;;8144087;28;20457;-76
2021/01/29 15:23:43;;;;;;;365.90;137.75;;;;;;;;;;8142134;28;20508;-76
2021/01/29 15:27:46;;;;;;;321.50;114.22;;;;;;;;;;8158405;28;20054;-76
2021/01/29 15:31:57;;;;;;;309.45;109.93;;;;;;;;;;8142648;28;20366;-76
2021/01/29 15:36:15;;;;;;;342.60;124.70;;;;;;;;;;8165905;28;20071;-75
2021/01/29 15:40:31;;;;;;;327.05;116.75;;;;;;;;;;8194463;28;20076;-76
2021/01/29 15:44:48;;;;;;;325.75;130.95;;;;;;;;;;8192639;28;20360;-76
2021/01/29 15:49:01;;;;;;;212.47;80.70;;;;;;;;;;8192240;28;20757;-76
2021/01/29 15:53:05;;;;;;;146.07;50.42;;;;;;;;;;8192815;28;20403;-76
2021/01/29 15:57:36;;;;;;;89.75;35.78;;;;;;;;;;8188157;28;20388;-75
2021/01/29 16:01:54;;;;;;;132.00;43.97;;;;;;;;;;8182644;28;20487;-75
2021/01/29 16:05:58;;;;;;;176.63;56.58;;;;;;;;;;8160577;28;20350;-76
2021/01/29 16:10:05;;;;;;;166.02;58.97;;;;;;;;;;8160569;28;20523;-75
2021/01/29 16:14:19;;;;;;;136.13;41.70;;;;;;;;;;8159908;28;20385;-76
2021/01/29 16:18:23;;;;;;;88.07;31.75;;;;;;;;;;8162430;28;20366;-76
2021/01/29 16:22:30;;;;;;;107.72;40.42;;;;;;;;;;8159395;28;20358;-76
2021/01/29 16:26:44;;;;;;;139.88;50.67;;;;;;;;;;8162140;28;20385;-76
2021/01/29 16:30:47;;;;;;;81.07;33.20;;;;;;;;;;8165763;28;20377;-76
2021/01/29 16:34:53;;;;;;;88.97;30.88;;;;;;;;;;8162073;28;20507;-76
2021/01/29 16:39:34;;;;;;;71.13;27.25;;;;;;;;;;8160743;28;20496;-75
2021/01/29 16:43:50;;;;;;;71.63;27.15;;;;;;;;;;8157350;28;20469;-76
2021/01/29 16:48:08;;;;;;;192.00;99.68;;;;;;;;;;8160150;28;20392;-76
2021/01/29 16:52:13;;;;;;;;;;;;;;;;;;8157100;28;20511;-75
2021/01/29 16:56:24;;;;;;;540.55;160.07;;;;;;;;;;8157460;28;19925;-75
2021/01/29 17:00:30;;;;;;;277.95;64.97;;;;;;;;;;8161781;28;20521;-77
2021/01/29 17:04:43;;;;;;;73.78;27.13;;;;;;;;;;8189686;28;20487;-74
2021/01/29 17:08:50;;;;;;;169.50;49.50;;;;;;;;;;8188734;28;20484;-75
2021/01/29 17:13:02;;;;;;;1999.90;679.33;;;;;;;;;;8172512;28;20464;-76
2021/01/29 17:17:05;;;;;;;1913.45;529.60;;;;;;;;;;8190595;28;20535;-74
2021/01/29 17:21:09;;;;;;;1999.90;773.30;;;;;;;;;;8189807;28;20404;-74
2021/01/29 17:25:38;;;;;;;1999.90;854.78;;;;;;;;;;8179236;28;20384;-75
2021/01/29 17:30:01;;;;;;;693.70;189.30;;;;;;;;;;8191250;28;20061;-77
2021/01/29 17:34:39;;;;;;;1999.90;663.88;;;;;;;;;;8187616;28;20414;-74
2021/01/29 17:39:05;;;;;;;845.33;205.75;;;;;;;;;;8183087;28;20489;-74
2021/01/29 17:43:26;;;;;;;604.60;126.65;;;;;;;;;;8188927;28;20076;-74
2021/01/29 17:47:33;;;;;;;;;;;;;;;;;;8191487;28;20181;-74
2021/01/29 17:51:37;;;;;;;326.33;60.25;;;;;;;;;;8159647;28;20266;-77
2021/01/29 17:55:49;;;;;;;226.55;71.70;;;;;;;;;;8190606;28;20350;-75
2021/01/29 18:00:02;;;;;;;1279.03;265.27;;;;;;;;;;8184614;28;20388;-74
2021/01/29 18:04:15;;;;;;;860.85;180.88;;;;;;;;;;8188887;28;20492;-74
2021/01/29 18:08:47;;;;;;;431.55;91.57;;;;;;;;;;8190287;28;20384;-73
2021/01/29 18:13:10;;;;;;;588.35;109.30;;;;;;;;;;8185608;28;20404;-73
2021/01/29 18:17:15;;;;;;;270.23;48.95;;;;;;;;;;8169447;28;20127;-74
2021/01/29 18:21:31;;;;;;;462.77;80.78;;;;;;;;;;8171122;28;20388;-73
2021/01/29 18:25:34;;;;;;;248.40;54.40;;;;;;;;;;8168432;28;20486;-73
2021/01/29 18:29:38;;;;;;;125.93;38.30;;;;;;;;;;8184701;28;20365;-73
2021/01/29 18:33:47;;;;;;;98.63;37.58;;;;;;;;;;8167769;28;20687;-74
2021/01/29 18:37:51;;;;;;;100.07;39.53;;;;;;;;;;8170713;28;20481;-74
2021/01/29 18:41:55;;;;;;;96.43;34.58;;;;;;;;;;8170731;28;20049;-74
2021/01/29 18:45:59;;;;;;;224.48;54.97;;;;;;;;;;8168737;28;20482;-75
2021/01/29 18:50:05;;;;;;;219.25;59.90;;;;;;;;;;8141229;28;20375;-74
2021/01/29 18:54:08;;;;;;;113.75;34.58;;;;;;;;;;8182653;28;20393;-74
2021/01/29 18:58:12;;;;;;;404.75;76.47;;;;;;;;;;8164374;28;20113;-74
2021/01/29 19:02:22;;;;;;;295.98;60.72;;;;;;;;;;8161975;28;20479;-74
2021/01/29 19:06:29;;;;;;;371.27;71.97;;;;;;;;;;8162990;28;20484;-74
2021/01/29 19:10:36;;;;;;;559.80;118.20;;;;;;;;;;8165035;28;20455;-74
2021/01/29 19:14:42;;;;;;;234.65;52.25;;;;;;;;;;8161289;28;20046;-74
2021/01/29 19:18:45;;;;;;;154.63;37.45;;;;;;;;;;8162748;28;20376;-74
2021/01/29 19:22:49;;;;;;;368.52;78.80;;;;;;;;;;8163217;28;20102;-74
2021/01/29 19:26:59;;;;;;;258.02;58.97;;;;;;;;;;8162859;28;20495;-74
2021/01/29 19:31:03;;;;;;;255.38;55.50;;;;;;;;;;8178363;28;20461;-74
2021/01/29 19:35:11;;;;;;;232.38;52.65;;;;;;;;;;8161471;28;20469;-74
2021/01/29 19:39:15;;;;;;;130.73;37.90;;;;;;;;;;8162421;28;20489;-74
2021/01/29 19:43:19;;;;;;;128.40;38.60;;;;;;;;;;8128980;28;20039;-74
2021/01/29 19:47:22;;;;;;;73.85;28.05;;;;;;;;;;8161330;28;20473;-74
2021/01/29 19:51:29;;;;;;;74.93;26.73;;;;;;;;;;8163341;28;20081;-74
2021/01/29 19:55:34;;;;;;;78.88;28.77;;;;;;;;;;8160169;28;20082;-74
2021/01/29 19:59:51;;;;;;;86.85;33.65;;;;;;;;;;8177506;28;20469;-74
2021/01/29 20:03:54;;;;;;;81.18;31.58;;;;;;;;;;8161229;28;20051;-74
2021/01/29 20:08:00;;;;;;;82.65;28.73;;;;;;;;;;8159424;28;20465;-74
2021/01/29 20:12:05;;;;;;;135.85;39.03;;;;;;;;;;8160452;28;20367;-74
2021/01/29 20:16:11;;;;;;;73.50;26.10;;;;;;;;;;8141191;28;20490;-74
2021/01/29 20:20:19;;;;;;;73.68;24.05;;;;;;;;;;8158271;28;20370;-74
2021/01/29 20:24:29;;;;;;;60.00;21.88;;;;;;;;;;8156208;28;20058;-73
2021/01/29 20:28:39;;;;;;;72.25;27.30;;;;;;;;;;8157972;28;20457;-73
2021/01/29 20:32:49;;;;;;;191.13;70.05;;;;;;;;;;8156110;28;20461;-74
2021/01/29 20:36:53;;;;;;;91.07;31.60;;;;;;;;;;8157340;28;20487;-74
2021/01/29 20:40:56;;;;;;;133.80;35.17;;;;;;;;;;8123721;28;20475;-74
2021/01/29 20:45:11;;;;;;;496.00;194.23;;;;;;;;;;8123959;28;20068;-74
2021/01/29 20:49:16;;;;;;;277.23;99.80;;;;;;;;;;8161257;28;20058;-74
2021/01/29 20:53:23;;;;;;;218.50;96.38;;;;;;;;;;8158937;28;20484;-74
2021/01/29 20:57:29;;;;;;;86.43;42.20;;;;;;;;;;8159899;28;20484;-73
2021/01/29 21:01:32;;;;;;;70.90;29.30;;;;;;;;;;8160674;28;20473;-74
2021/01/29 21:05:37;;;;;;;72.15;30.95;;;;;;;;;;8159842;28;20380;-75
2021/01/29 21:09:41;;;;;;;109.30;36.30;;;;;;;;;;8159781;28;20385;-72
2021/01/29 21:13:46;;;;;;;628.05;130.90;;;;;;;;;;8156764;28;20461;-73
2021/01/29 21:17:55;;;;;;;469.65;89.72;;;;;;;;;;8158152;28;20365;-74
2021/01/29 21:22:05;;;;;;;80.38;28.08;;;;;;;;;;8160404;28;20050;-73
2021/01/29 21:26:15;;;;;;;80.25;27.73;;;;;;;;;;8143612;28;20491;-73
2021/01/29 21:30:25;;;;;;;71.40;24.67;;;;;;;;;;8158962;28;20477;-74
2021/01/29 21:34:30;;;;;;;70.43;26.33;;;;;;;;;;8154826;28;20068;-73
2021/01/29 21:38:35;;;;;;;86.80;38.03;;;;;;;;;;8123878;28;20042;-74
2021/01/29 21:42:39;;;;;;;63.63;27.33;;;;;;;;;;8137895;28;20458;-73
2021/01/29 21:46:42;;;;;;;71.45;26.80;;;;;;;;;;8107253;28;20477;-74
2021/01/29 21:50:47;;;;;;;71.55;26.77;;;;;;;;;;8122958;28;20462;-74
2021/01/29 21:54:50;;;;;;;45.63;18.10;;;;;;;;;;8121999;28;20055;-74
2021/01/29 21:58:54;;;;;;;48.83;18.50;;;;;;;;;;8123783;28;20047;-73
2021/01/29 22:02:57;;;;;;;70.80;27.23;;;;;;;;;;8121821;28;20470;-74
2021/01/29 22:07:02;;;;;;;59.55;24.92;;;;;;;;;;8138853;28;20106;-74
2021/01/29 22:11:05;;;;;;;44.03;18.17;;;;;;;;;;8153187;28;20050;-73
2021/01/29 22:15:12;;;;;;;44.25;18.95;;;;;;;;;;8152948;28;20629;-73
2021/01/29 22:19:17;;;;;;;81.75;25.35;;;;;;;;;;8125728;28;20491;-74
2021/01/29 22:23:20;;;;;;;62.38;21.33;;;;;;;;;;8156634;28;20059;-73
2021/01/29 22:27:24;;;;;;;37.97;15.45;;;;;;;;;;8146836;28;20073;-73
2021/01/29 22:31:27;;;;;;;33.60;14.95;;;;;;;;;;8163386;28;20453;-75
2021/01/29 22:35:33;;;;;;;30.90;14.65;;;;;;;;;;8163902;28;20350;-74
2021/01/29 22:39:40;;;;;;;35.63;13.85;;;;;;;;;;8165500;28;20385;-75
2021/01/29 22:43:43;;;;;;;42.22;15.38;;;;;;;;;;8164000;28;20382;-76
2021/01/29 22:47:48;;;;;;;257.23;58.30;;;;;;;;;;8163361;28;20453;-74
2021/01/29 22:51:51;;;;;;;59.47;21.30;;;;;;;;;;8162926;28;20491;-72
2021/01/29 22:55:54;;;;;;;36.17;13.85;;;;;;;;;;8164103;28;20453;-74
2021/01/29 22:59:57;;;;;;;326.85;74.32;;;;;;;;;;8162913;28;20063;-75
2021/01/29 23:04:00;;;;;;;386.35;100.50;;;;;;;;;;8161937;28;20369;-74
2021/01/29 23:08:06;;;;;;;74.57;27.15;;;;;;;;;;8161705;28;20384;-75
2021/01/29 23:12:10;;;;;;;181.52;45.90;;;;;;;;;;8160806;28;20058;-75
2021/01/29 23:16:14;;;;;;;355.42;94.82;;;;;;;;;;8163788;28;20082;-75
2021/01/29 23:20:29;;;;;;;50.90;19.98;;;;;;;;;;8163221;28;20474;-72
2021/01/29 23:24:31;;;;;;;50.47;17.42;;;;;;;;;;8163075;28;20385;-73
2021/01/29 23:28:35;;;;;;;79.25;24.45;;;;;;;;;;8161779;28;20072;-73
2021/01/29 23:32:40;;;;;;;88.35;26.38;;;;;;;;;;8162308;28;20377;-74
2021/01/29 23:36:44;;;;;;;50.28;19.38;;;;;;;;;;8163596;28;20381;-73
2021/01/29 23:40:48;;;;;;;37.22;15.60;;;;;;;;;;8164424;28;20366;-74
2021/01/29 23:44:51;;;;;;;33.25;13.80;;;;;;;;;;8163910;28;20381;-73
2021/01/29 23:48:54;;;;;;;33.80;13.65;;;;;;;;;;8145526;28;20489;-74
2021/01/29 23:53:04;;;;;;;32.63;13.75;;;;;;;;;;8161923;28;20080;-74
2021/01/29 23:57:09;;;;;;;30.10;13.18;;;;;;;;;;8162734;28;20046;-73
